Time;durP1;ratioP1;P1;durP2;ratioP2;P2;SDS_P1;SDS_P2;PMS_P1;PMS_P2;Temp;Humidity;BMP_temperature;BMP_pressure;BME280_temperature;BME280_humidity;BME280_pressure;Samples;Min_cycle;Max_cycle;Signal;HPM_P1;HPM_P2
2022/06/01 00:00:55;;;;;;;13.43;12.07;;;11.50;99.90;;;;;;5050086;28;20143;-72
2022/06/01 00:03:23;;;;;;;13.68;12.13;;;11.50;99.90;;;;;;5046954;28;20092;-72
2022/06/01 00:05:53;;;;;;;14.02;12.63;;;11.50;99.90;;;;;;5044040;28;20048;-72
2022/06/01 00:08:20;;;;;;;12.82;11.57;;;11.50;99.90;;;;;;5030370;28;20048;-72
2022/06/01 00:10:46;;;;;;;13.45;11.90;;;11.50;99.90;;;;;;5042613;28;20083;-72
2022/06/01 00:13:11;;;;;;;13.50;12.10;;;11.40;99.90;;;;;;5042695;28;20037;-72
2022/06/01 00:15:37;;;;;;;12.98;11.73;;;11.50;99.90;;;;;;5045834;28;20040;-72
2022/06/01 00:18:03;;;;;;;12.43;11.13;;;11.40;99.90;;;;;;5045432;28;20489;-72
2022/06/01 00:20:29;;;;;;;12.95;11.63;;;11.40;99.90;;;;;;5046403;28;20427;-72
2022/06/01 00:22:56;;;;;;;12.10;10.95;;;11.40;99.90;;;;;;5042312;28;20157;-72
2022/06/01 00:25:23;;;;;;;12.55;11.35;;;11.40;99.90;;;;;;5049332;28;20048;-72
2022/06/01 00:27:49;;;;;;;14.40;11.52;;;11.40;99.90;;;;;;5070477;28;20464;-72
2022/06/01 00:30:16;;;;;;;13.75;12.32;;;11.30;99.90;;;;;;5042925;28;20039;-72
2022/06/01 00:32:42;;;;;;;13.30;11.45;;;11.30;99.90;;;;;;5044001;28;20029;-72
2022/06/01 00:35:10;;;;;;;14.15;10.70;;;11.30;99.90;;;;;;5030128;28;20044;-72
2022/06/01 00:37:36;;;;;;;12.35;11.00;;;11.30;99.90;;;;;;5032952;28;20177;-72
2022/06/01 00:40:04;;;;;;;12.43;11.32;;;11.30;99.90;;;;;;5045299;28;20548;-72
2022/06/01 00:42:31;;;;;;;11.82;10.73;;;11.20;99.90;;;;;;5043402;28;20045;-72
2022/06/01 00:44:57;;;;;;;12.30;11.07;;;11.20;99.90;;;;;;5046778;28;20065;-72
2022/06/01 00:47:25;;;;;;;13.48;10.55;;;11.20;99.90;;;;;;5047939;28;20393;-72
2022/06/01 00:50:36;;;;;;;12.70;11.50;;;11.10;99.90;;;;;;5047597;28;20080;-72
2022/06/01 00:53:07;;;;;;;11.90;10.73;;;11.10;99.90;;;;;;5042374;28;20506;-72
2022/06/01 00:55:37;;;;;;;12.55;11.35;;;11.00;99.90;;;;;;5060575;28;20052;-72
2022/06/01 00:58:37;;;;;;;13.35;12.05;;;11.00;99.90;;;;;;5037380;28;20055;-72
2022/06/01 01:01:04;;;;;;;12.32;11.13;;;10.90;99.90;;;;;;5011653;28;20048;-72
2022/06/01 01:03:35;;;;;;;14.05;12.68;;;10.80;99.90;;;;;;5044709;28;20056;-72
2022/06/01 01:06:15;;;;;;;11.52;10.43;;;10.80;99.90;;;;;;5051043;28;20047;-72
2022/06/01 01:08:42;;;;;;;13.63;12.25;;;10.70;99.90;;;;;;5047032;28;20048;-72
2022/06/01 01:11:12;;;;;;;14.27;12.77;;;10.70;99.90;;;;;;5048556;28;20051;-72
2022/06/01 01:13:41;;;;;;;11.95;10.90;;;10.60;99.90;;;;;;5063590;28;20106;-72
2022/06/01 01:16:07;;;;;;;12.02;10.82;;;10.60;99.90;;;;;;5044624;28;20040;-72
2022/06/01 01:18:35;;;;;;;12.30;11.23;;;10.50;99.90;;;;;;5044143;28;20127;-72
2022/06/01 01:21:20;;;;;;;13.43;10.82;;;10.50;99.90;;;;;;5030824;28;20079;-72
2022/06/01 01:24:04;;;;;;;11.55;10.27;;;10.40;99.90;;;;;;5022056;28;20480;-72
2022/06/01 01:26:31;;;;;;;12.10;11.07;;;10.40;99.90;;;;;;5042471;28;20037;-72
2022/06/01 01:28:57;;;;;;;12.05;10.85;;;10.40;99.90;;;;;;5036310;28;20471;-72
2022/06/01 01:31:24;;;;;;;13.63;12.43;;;10.30;99.90;;;;;;5029483;28;20219;-72
2022/06/01 01:33:53;;;;;;;13.75;12.40;;;10.30;99.90;;;;;;5031738;28;20884;-72
2022/06/01 01:36:27;;;;;;;13.50;11.52;;;10.30;99.90;;;;;;5047646;28;20045;-72
2022/06/01 01:39:15;;;;;;;14.60;13.07;;;10.30;99.90;;;;;;5045478;28;20440;-72
2022/06/01 01:41:43;;;;;;;13.02;11.80;;;10.20;99.90;;;;;;5046162;28;20143;-72
2022/06/01 01:44:21;;;;;;;14.05;12.65;;;10.30;99.90;;;;;;5044342;28;20037;-72
2022/06/01 01:46:48;;;;;;;14.43;13.15;;;10.30;99.90;;;;;;5057791;28;20053;-72
2022/06/01 01:49:21;;;;;;;14.52;13.02;;;10.20;99.90;;;;;;5043326;28;20094;-72
2022/06/01 01:51:48;;;;;;;15.23;13.73;;;10.30;99.90;;;;;;5047713;28;20055;-72
2022/06/01 01:54:27;;;;;;;15.50;13.70;;;10.30;99.90;;;;;;5029897;28;20048;-72
2022/06/01 01:57:07;;;;;;;16.92;14.77;;;10.30;99.90;;;;;;5044935;28;20091;-72
2022/06/01 01:59:50;;;;;;;14.57;13.27;;;10.30;99.90;;;;;;5044173;28;20357;-72
2022/06/01 02:02:37;;;;;;;15.10;13.60;;;10.20;99.90;;;;;;5043370;28;20119;-71
2022/06/01 02:08:13;;;;;;;16.08;14.43;;;10.20;99.90;;;;;;5043178;28;20072;-71
2022/06/01 02:13:25;;;;;;;16.98;15.32;;;10.20;99.90;;;;;;5045902;28;20124;-71
2022/06/01 02:15:54;;;;;;;17.30;15.80;;;10.20;99.90;;;;;;5041623;28;20492;-71
2022/06/01 02:18:25;;;;;;;18.25;16.38;;;10.20;99.90;;;;;;5055297;28;20033;-72
2022/06/01 02:21:13;;;;;;;20.52;18.60;;;10.30;99.90;;;;;;5042753;28;20055;-72
2022/06/01 02:23:39;;;;;;;18.75;16.83;;;10.30;99.90;;;;;;5044573;28;20039;-72
2022/06/01 02:26:05;;;;;;;19.88;17.98;;;10.30;99.90;;;;;;5040876;28;20087;-72
2022/06/01 02:28:32;;;;;;;19.25;17.05;;;10.30;99.90;;;;;;5046986;28;20477;-71
2022/06/01 02:31:00;;;;;;;17.48;15.98;;;10.30;99.90;;;;;;5047409;28;20127;-71
2022/06/01 02:33:33;;;;;;;19.02;17.40;;;10.30;99.90;;;;;;5042450;28;20047;-71
2022/06/01 02:36:00;;;;;;;19.35;17.48;;;10.30;99.90;;;;;;5040739;28;20099;-71
2022/06/01 02:38:47;;;;;;;19.02;17.23;;;10.30;99.90;;;;;;5043764;28;20428;-71
2022/06/01 02:43:58;;;;;;;18.27;16.67;;;10.40;99.90;;;;;;5045428;28;20051;-72
2022/06/01 02:46:24;;;;;;;19.40;17.60;;;10.40;99.90;;;;;;5047464;28;20140;-72
2022/06/01 02:48:50;;;;;;;19.42;17.73;;;10.40;99.90;;;;;;5041846;28;20045;-72
2022/06/01 02:51:18;;;;;;;20.92;18.98;;;10.50;99.90;;;;;;5043451;28;20041;-72
2022/06/01 02:53:45;;;;;;;19.75;17.85;;;10.50;99.90;;;;;;5049030;28;20063;-72
2022/06/01 02:56:11;;;;;;;19.95;17.92;;;10.50;99.90;;;;;;5052933;28;20052;-71
2022/06/01 02:58:37;;;;;;;20.27;18.38;;;10.50;99.90;;;;;;5052327;28;20072;-71
2022/06/01 03:01:04;;;;;;;21.58;19.48;;;10.50;99.90;;;;;;5044789;28;20029;-71
2022/06/01 03:03:30;;;;;;;20.67;18.88;;;10.50;99.90;;;;;;5056239;28;20037;-72
2022/06/01 03:05:56;;;;;;;21.88;19.90;;;10.50;99.90;;;;;;5030883;28;20373;-72
2022/06/01 03:08:22;;;;;;;21.42;19.20;;;10.40;99.90;;;;;;5044601;28;20094;-72
2022/06/01 03:10:48;;;;;;;23.23;20.95;;;10.40;99.90;;;;;;5051436;28;20102;-72
2022/06/01 03:13:15;;;;;;;22.80;20.33;;;10.40;99.90;;;;;;5048823;28;20052;-72
2022/06/01 03:15:40;;;;;;;22.60;20.40;;;10.30;99.90;;;;;;5050694;28;20055;-72
2022/06/01 03:18:06;;;;;;;22.42;20.40;;;10.40;99.90;;;;;;5044045;28;20477;-72
2022/06/01 03:20:33;;;;;;;21.65;19.70;;;10.40;99.90;;;;;;5046480;28;20040;-72
2022/06/01 03:23:00;;;;;;;22.58;20.48;;;10.40;99.90;;;;;;5037101;28;20047;-72
2022/06/01 03:25:27;;;;;;;24.08;21.92;;;10.40;99.90;;;;;;5039014;28;20056;-72
2022/06/01 03:27:57;;;;;;;21.65;19.60;;;10.40;99.90;;;;;;5043042;28;20506;-72
2022/06/01 03:30:23;;;;;;;21.77;19.77;;;10.40;99.90;;;;;;5050180;28;20041;-72
2022/06/01 03:32:50;;;;;;;21.63;19.58;;;10.40;99.90;;;;;;5066217;28;20112;-72
2022/06/01 03:35:19;;;;;;;21.52;19.50;;;10.40;99.90;;;;;;5051292;28;20033;-72
2022/06/01 03:37:45;;;;;;;21.90;19.90;;;10.40;99.90;;;;;;5035136;28;20043;-72
2022/06/01 03:40:13;;;;;;;21.02;19.23;;;10.50;99.90;;;;;;5050524;28;20037;-71
2022/06/01 03:42:39;;;;;;;23.42;21.25;;;10.50;99.90;;;;;;5056229;28;20072;-71
2022/06/01 03:47:51;;;;;;;23.80;21.70;;;10.50;99.90;;;;;;5040588;28;20105;-71
2022/06/01 03:50:18;;;;;;;23.63;21.52;;;10.50;99.90;;;;;;5030814;28;20047;-72
2022/06/01 03:52:47;;;;;;;23.20;20.98;;;10.50;99.90;;;;;;5050239;28;20442;-72
2022/06/01 03:55:14;;;;;;;23.30;21.05;;;10.50;99.90;;;;;;5030792;28;20053;-72
2022/06/01 03:57:41;;;;;;;22.48;20.60;;;10.60;99.90;;;;;;5048818;28;20086;-72
2022/06/01 04:00:11;;;;;;;23.95;21.75;;;10.60;99.90;;;;;;5046296;28;20037;-72
2022/06/01 04:02:37;;;;;;;24.10;21.85;;;10.60;99.90;;;;;;5048339;28;20037;-72
2022/06/01 04:05:04;;;;;;;21.60;19.67;;;10.70;99.90;;;;;;5043367;28;20637;-72
2022/06/01 04:07:29;;;;;;;21.67;19.83;;;10.70;99.90;;;;;;5039680;28;20051;-72
2022/06/01 04:09:55;;;;;;;23.05;20.95;;;10.70;99.90;;;;;;5042812;28;20468;-72
2022/06/01 04:12:22;;;;;;;22.85;20.65;;;10.70;99.90;;;;;;5053214;28;20044;-72
2022/06/01 04:14:48;;;;;;;23.55;21.33;;;10.70;99.90;;;;;;5046907;28;20047;-72
2022/06/01 04:17:13;;;;;;;24.55;22.35;;;10.70;99.90;;;;;;5046085;28;20453;-72
2022/06/01 04:19:39;;;;;;;23.65;21.58;;;10.80;99.90;;;;;;5043713;28;20053;-72
2022/06/01 04:22:06;;;;;;;24.70;22.40;;;10.80;99.90;;;;;;5049077;28;20721;-72
2022/06/01 04:24:34;;;;;;;26.02;23.63;;;10.80;99.90;;;;;;5045918;28;20095;-72
2022/06/01 04:26:59;;;;;;;25.77;23.35;;;10.80;99.90;;;;;;5030291;28;20080;-72
2022/06/01 04:29:25;;;;;;;25.05;22.90;;;10.80;99.90;;;;;;5054717;28;20065;-71
2022/06/01 04:32:05;;;;;;;24.88;22.63;;;10.80;99.90;;;;;;5045518;28;20152;-72
2022/06/01 04:34:31;;;;;;;25.98;23.60;;;10.90;99.90;;;;;;5047024;28;20032;-72
2022/06/01 04:36:57;;;;;;;25.10;22.73;;;10.90;99.90;;;;;;5042912;28;20037;-72
2022/06/01 04:39:23;;;;;;;26.23;23.92;;;10.90;99.90;;;;;;5054718;28;20093;-71
2022/06/01 04:41:49;;;;;;;27.05;24.65;;;10.90;99.90;;;;;;5042722;28;20045;-71
2022/06/01 04:44:15;;;;;;;25.75;23.52;;;10.90;99.90;;;;;;5050708;28;20039;-71
2022/06/01 04:46:40;;;;;;;27.27;24.90;;;11.00;99.90;;;;;;5045135;28;20060;-71
2022/06/01 04:49:07;;;;;;;25.50;23.10;;;11.00;99.90;;;;;;5046003;28;20048;-72
2022/06/01 04:51:36;;;;;;;24.48;22.27;;;11.00;99.90;;;;;;5046215;28;20037;-71
2022/06/01 04:54:03;;;;;;;25.70;23.40;;;11.10;99.90;;;;;;5048182;28;20071;-71
2022/06/01 04:56:29;;;;;;;24.73;22.42;;;11.10;99.90;;;;;;5041982;28;20052;-71
2022/06/01 04:58:54;;;;;;;26.75;24.25;;;11.10;99.90;;;;;;5041119;28;20049;-71
2022/06/01 05:01:20;;;;;;;26.02;23.42;;;11.10;99.90;;;;;;5045251;28;20033;-71
2022/06/01 05:03:45;;;;;;;25.23;22.85;;;11.10;99.90;;;;;;5046297;28;20032;-71
2022/06/01 05:06:11;;;;;;;25.38;23.17;;;11.10;99.90;;;;;;5044629;28;20049;-72
2022/06/01 05:08:37;;;;;;;25.45;23.05;;;11.10;99.90;;;;;;5043530;28;20411;-72
2022/06/01 05:11:07;;;;;;;26.10;23.77;;;11.10;99.90;;;;;;5029633;28;20132;-72
2022/06/01 05:13:32;;;;;;;28.38;25.88;;;11.20;99.90;;;;;;5049521;28;20044;-72
2022/06/01 05:16:01;;;;;;;28.67;26.05;;;11.20;99.90;;;;;;5044486;28;20048;-71
2022/06/01 05:18:27;;;;;;;30.80;27.85;;;11.20;99.90;;;;;;5049240;28;20514;-72
2022/06/01 05:20:54;;;;;;;28.42;25.92;;;11.20;99.90;;;;;;5050411;28;20483;-72
2022/06/01 05:23:20;;;;;;;29.02;26.38;;;11.20;99.90;;;;;;5045308;28;20040;-71
2022/06/01 05:25:48;;;;;;;28.58;25.83;;;11.30;99.90;;;;;;5062080;28;20044;-71
2022/06/01 05:28:18;;;;;;;29.38;26.67;;;11.30;99.90;;;;;;5029355;28;20072;-71
2022/06/01 05:30:44;;;;;;;27.92;25.42;;;11.30;99.90;;;;;;5048864;28;20036;-71
2022/06/01 05:33:10;;;;;;;28.15;25.50;;;11.40;99.90;;;;;;5027832;28;20055;-71
2022/06/01 05:35:36;;;;;;;30.83;27.83;;;11.40;99.90;;;;;;5045369;28;20040;-71
2022/06/01 05:38:02;;;;;;;29.95;27.25;;;11.40;99.90;;;;;;5042667;28;20068;-71
2022/06/01 05:40:30;;;;;;;28.33;25.85;;;11.50;99.90;;;;;;5042644;28;20512;-71
2022/06/01 05:42:57;;;;;;;29.25;26.50;;;11.50;99.90;;;;;;5039469;28;20424;-71
2022/06/01 05:45:23;;;;;;;28.85;26.25;;;11.60;99.90;;;;;;5028485;28;20048;-71
2022/06/01 05:47:49;;;;;;;27.42;25.02;;;11.50;99.90;;;;;;5024577;28;20057;-71
2022/06/01 05:50:16;;;;;;;29.50;26.63;;;11.60;99.90;;;;;;5047032;28;20075;-71
2022/06/01 05:52:41;;;;;;;30.20;27.33;;;11.60;99.90;;;;;;5040162;28;20049;-71
2022/06/01 05:55:10;;;;;;;28.13;25.63;;;11.70;99.90;;;;;;5063835;28;20749;-72
2022/06/01 05:57:36;;;;;;;28.73;26.13;;;11.70;99.90;;;;;;5048231;28;20591;-72
2022/06/01 06:00:10;;;;;;;29.58;26.80;;;11.70;99.90;;;;;;5027446;28;20048;-71
2022/06/01 06:02:36;;;;;;;31.13;28.33;;;11.70;99.90;;;;;;5047130;28;20049;-71
2022/06/01 06:05:03;;;;;;;30.52;27.63;;;11.70;99.90;;;;;;5051914;28;20033;-71
2022/06/01 06:07:29;;;;;;;30.80;27.83;;;11.80;99.90;;;;;;5040486;28;20458;-71
2022/06/01 06:09:54;;;;;;;30.65;27.73;;;12.10;99.90;;;;;;5028774;28;20103;-71
2022/06/01 06:12:20;;;;;;;30.98;28.17;;;12.30;99.90;;;;;;5046770;28;20033;-71
2022/06/01 06:14:47;;;;;;;28.10;25.58;;;12.50;99.90;;;;;;5028861;28;20405;-71
2022/06/01 06:17:13;;;;;;;29.55;26.95;;;12.70;99.90;;;;;;5044862;28;20033;-72
2022/06/01 06:19:39;;;;;;;27.10;24.80;;;12.90;99.90;;;;;;5042668;28;20094;-71
2022/06/01 06:22:09;;;;;;;23.95;21.85;;;13.10;99.90;;;;;;5043942;28;20488;-71
2022/06/01 06:24:35;;;;;;;23.00;20.90;;;13.10;99.90;;;;;;5039865;28;20049;-71
2022/06/01 06:27:01;;;;;;;20.98;19.08;;;13.30;99.90;;;;;;5043417;28;20056;-72
2022/06/01 06:29:26;;;;;;;22.13;20.15;;;13.50;99.90;;;;;;5040688;28;20247;-72
2022/06/01 06:31:52;;;;;;;18.02;16.42;;;13.70;99.90;;;;;;5062655;28;20105;-72
2022/06/01 06:34:18;;;;;;;17.00;15.40;;;13.80;99.90;;;;;;5037622;28;20423;-72
2022/06/01 06:36:44;;;;;;;16.70;15.10;;;13.90;99.90;;;;;;5040293;28;20052;-72
2022/06/01 06:39:11;;;;;;;16.83;15.43;;;13.90;99.90;;;;;;5042241;28;20110;-72
2022/06/01 06:41:37;;;;;;;16.55;15.18;;;13.90;99.90;;;;;;5044494;28;20043;-72
2022/06/01 06:44:03;;;;;;;17.20;15.60;;;14.00;99.90;;;;;;5042283;28;20049;-72
2022/06/01 06:46:29;;;;;;;17.75;16.15;;;14.20;99.90;;;;;;5046847;28;20053;-72
2022/06/01 06:48:55;;;;;;;16.25;14.80;;;14.30;99.90;;;;;;5042940;28;20509;-72
2022/06/01 06:51:21;;;;;;;17.52;15.93;;;14.40;99.90;;;;;;5043161;28;20060;-72
2022/06/01 06:53:48;;;;;;;17.85;16.15;;;14.40;99.90;;;;;;5036249;28;20461;-72
2022/06/01 06:56:14;;;;;;;17.50;16.00;;;14.30;99.90;;;;;;5043956;28;20132;-73
2022/06/01 06:58:41;;;;;;;18.88;17.20;;;14.20;99.90;;;;;;5041137;28;20088;-73
2022/06/01 07:01:07;;;;;;;16.52;15.13;;;14.20;99.90;;;;;;5045591;28;20475;-73
2022/06/01 07:03:33;;;;;;;17.80;16.20;;;14.30;99.90;;;;;;5036816;28;20110;-72
2022/06/01 07:06:14;;;;;;;16.30;14.75;;;14.60;99.90;;;;;;5037441;28;20572;-72
2022/06/01 07:08:52;;;;;;;15.25;13.32;;;14.80;99.90;;;;;;5039540;28;20045;-72
2022/06/01 07:11:20;;;;;;;13.60;12.50;;;15.20;99.90;;;;;;5042260;28;20458;-73
2022/06/01 07:13:48;;;;;;;15.85;14.45;;;15.30;99.90;;;;;;5035694;28;20527;-73
2022/06/01 07:16:19;;;;;;;14.55;13.35;;;15.30;99.90;;;;;;5038859;28;20057;-73
2022/06/01 07:18:47;;;;;;;14.93;13.57;;;15.20;99.90;;;;;;5045740;28;20057;-74
2022/06/01 07:21:17;;;;;;;17.13;15.50;;;15.20;99.90;;;;;;5043738;28;20132;-73
2022/06/01 07:23:44;;;;;;;16.75;15.13;;;15.10;99.90;;;;;;5037827;28;20058;-74
2022/06/01 07:26:13;;;;;;;15.48;14.15;;;15.00;99.90;;;;;;5037704;28;20728;-73
2022/06/01 07:28:39;;;;;;;15.23;13.98;;;15.00;99.90;;;;;;5026629;28;20132;-73
2022/06/01 07:31:06;;;;;;;15.45;14.05;;;15.00;99.90;;;;;;5038871;28;20132;-73
2022/06/01 07:33:34;;;;;;;16.55;15.05;;;14.90;99.90;;;;;;5043356;28;20052;-73
2022/06/01 07:36:03;;;;;;;16.15;14.73;;;14.80;99.90;;;;;;5040036;28;20088;-73
2022/06/01 07:44:21;;;;;;;9.52;5.80;;;14.40;99.90;;;;;;5038808;28;20041;-72
2022/06/01 07:46:47;;;;;;;9.23;4.03;;;14.00;99.90;;;;;;5021007;28;20053;-69
2022/06/01 07:49:14;;;;;;;7.65;3.20;;;13.70;99.90;;;;;;5039835;28;20084;-68
2022/06/01 07:51:40;;;;;;;8.52;3.70;;;13.20;99.90;;;;;;5041900;28;20374;-66
2022/06/01 07:54:07;;;;;;;9.77;4.95;;;12.80;99.90;;;;;;5042841;28;20033;-66
2022/06/01 07:56:33;;;;;;;8.50;5.68;;;12.40;99.90;;;;;;5042455;28;20047;-67
2022/06/01 07:58:59;;;;;;;7.30;5.40;;;12.10;99.90;;;;;;5044043;28;20033;-68
2022/06/01 08:01:25;;;;;;;8.00;5.72;;;11.80;99.90;;;;;;5043295;28;20068;-67
2022/06/01 08:03:56;;;;;;;6.70;6.05;;;11.60;99.90;;;;;;5049377;28;20041;-67
2022/06/01 08:06:26;;;;;;;7.47;6.38;;;11.60;99.90;;;;;;5045449;28;20049;-68
2022/06/01 08:08:53;;;;;;;7.80;7.00;;;11.40;99.90;;;;;;5035310;28;20072;-69
2022/06/01 08:11:19;;;;;;;7.75;7.05;;;11.40;99.90;;;;;;5042392;28;20400;-70
2022/06/01 08:13:45;;;;;;;7.25;6.55;;;11.40;99.90;;;;;;5042261;28;20049;-71
2022/06/01 08:16:10;;;;;;;8.70;7.70;;;11.40;99.90;;;;;;5043132;28;20127;-71
2022/06/01 08:18:36;;;;;;;9.95;8.13;;;11.50;99.90;;;;;;5040023;28;20037;-71
2022/06/01 08:21:03;;;;;;;8.40;7.55;;;11.50;99.90;;;;;;5044392;28;20380;-71
2022/06/01 08:23:31;;;;;;;9.45;8.52;;;11.60;99.90;;;;;;5039917;28;20091;-71
2022/06/01 08:25:58;;;;;;;7.75;6.95;;;11.60;99.90;;;;;;5041979;28;20532;-71
2022/06/01 08:28:24;;;;;;;8.35;7.55;;;11.60;99.90;;;;;;5039863;28;20052;-71
2022/06/01 08:30:50;;;;;;;9.00;7.90;;;11.70;99.90;;;;;;5037711;28;20045;-72
2022/06/01 08:33:17;;;;;;;8.73;7.72;;;11.80;99.90;;;;;;5047493;28;20409;-71
2022/06/01 08:35:46;;;;;;;9.88;8.98;;;11.80;99.90;;;;;;5037698;28;20038;-71
2022/06/01 08:38:12;;;;;;;10.40;9.27;;;11.90;99.90;;;;;;5036538;28;20049;-71
2022/06/01 08:41:13;;;;;;;10.48;9.48;;;12.30;99.90;;;;;;5041271;28;20029;-71
2022/06/01 08:44:01;;;;;;;9.73;8.77;;;12.60;99.90;;;;;;5044819;28;20041;-71
2022/06/01 08:46:29;;;;;;;10.93;8.40;;;12.70;99.90;;;;;;5042822;28;20062;-72
2022/06/01 08:49:13;;;;;;;12.48;11.27;;;12.80;99.90;;;;;;5038888;28;20349;-72
2022/06/01 08:51:38;;;;;;;13.53;12.23;;;12.80;99.90;;;;;;5040859;28;20060;-72
2022/06/01 08:54:04;;;;;;;10.55;9.63;;;12.80;99.90;;;;;;5045804;28;20045;-72
2022/06/01 08:56:35;;;;;;;12.57;11.10;;;12.90;99.90;;;;;;5045120;28;20401;-72
2022/06/01 08:59:07;;;;;;;22.25;13.82;;;13.00;99.90;;;;;;5041479;28;20534;-72
2022/06/01 09:01:42;;;;;;;12.88;11.57;;;13.50;99.90;;;;;;5024919;28;20034;-72
2022/06/01 09:04:35;;;;;;;9.10;8.20;;;14.20;99.90;;;;;;5048846;28;20057;-72
2022/06/01 09:07:15;;;;;;;9.57;8.55;;;15.10;99.90;;;;;;5044894;28;20617;-72
2022/06/01 09:10:00;;;;;;;9.23;8.35;;;15.50;99.90;;;;;;5041388;28;20053;-72
2022/06/01 09:12:26;;;;;;;9.98;9.18;;;15.80;99.90;;;;;;5027175;28;20037;-72
2022/06/01 09:14:56;;;;;;;7.88;7.18;;;15.70;99.90;;;;;;5039440;28;20037;-72
2022/06/01 09:17:22;;;;;;;7.45;6.85;;;15.60;99.90;;;;;;5046088;28;20528;-72
2022/06/01 09:22:39;;;;;;;9.00;8.20;;;15.20;99.90;;;;;;5040768;28;20048;-72
2022/06/01 09:25:07;;;;;;;9.25;8.23;;;15.00;99.90;;;;;;5035818;28;20037;-72
2022/06/01 09:27:44;;;;;;;9.57;6.80;;;15.20;99.90;;;;;;5041779;28;20390;-72
2022/06/01 09:30:18;;;;;;;7.03;6.43;;;15.70;99.90;;;;;;5026607;28;20822;-73
2022/06/01 09:33:02;;;;;;;6.95;6.25;;;16.20;99.90;;;;;;5041828;28;20055;-73
2022/06/01 09:35:31;;;;;;;6.25;5.65;;;16.60;99.90;;;;;;5043450;28;20053;-73
2022/06/01 09:38:01;;;;;;;5.47;5.07;;;16.90;99.90;;;;;;5045545;28;20497;-73
2022/06/01 09:40:30;;;;;;;5.78;5.28;;;16.60;99.90;;;;;;5057791;28;20477;-73
2022/06/01 09:42:59;;;;;;;6.03;4.75;;;16.30;99.90;;;;;;5042643;28;20049;-73
2022/06/01 09:45:42;;;;;;;6.07;5.53;;;16.00;99.90;;;;;;5031226;28;20065;-73
2022/06/01 09:48:30;;;;;;;4.95;4.55;;;15.70;99.90;;;;;;5048361;28;20135;-73
2022/06/01 09:51:08;;;;;;;5.13;4.72;;;15.50;99.90;;;;;;5035794;28;20623;-73
2022/06/01 09:53:46;;;;;;;7.05;5.35;;;15.20;99.90;;;;;;5044829;28;20678;-73
2022/06/01 09:56:18;;;;;;;8.07;5.75;;;15.00;99.90;;;;;;5044612;28;20056;-73
2022/06/01 10:07:28;;;;;;;6.00;5.40;;;15.70;99.90;;;;;;5035063;28;20060;-73
2022/06/01 10:10:00;;;;;;;5.25;4.47;;;16.00;99.90;;;;;;5041787;28;20040;-73
2022/06/01 10:12:50;;;;;;;4.35;3.95;;;16.10;99.90;;;;;;5040738;28;20051;-73
2022/06/01 10:15:40;;;;;;;5.20;4.43;;;16.10;99.90;;;;;;5027056;28;20036;-74
2022/06/01 10:18:18;;;;;;;5.75;4.30;;;15.90;99.90;;;;;;5037874;28;20098;-74
2022/06/01 10:20:59;;;;;;;6.03;4.15;;;15.80;99.90;;;;;;5041015;28;20047;-74
2022/06/01 10:23:40;;;;;;;4.30;3.92;;;15.80;99.90;;;;;;5039134;28;20029;-74
2022/06/01 10:26:16;;;;;;;3.78;3.17;;;15.90;99.90;;;;;;5037892;28;20116;-74
2022/06/01 10:28:47;;;;;;;2.53;1.90;;;16.30;99.90;;;;;;5027068;28;20036;-74
2022/06/01 10:31:36;;;;;;;5.32;2.83;;;17.00;99.90;;;;;;5041262;28;20053;-74
2022/06/01 10:34:09;;;;;;;2.38;2.05;;;17.50;99.90;;;;;;5038607;28;20608;-75
2022/06/01 10:36:48;;;;;;;2.78;2.05;;;18.10;99.90;;;;;;5022677;28;20417;-75
2022/06/01 10:39:23;;;;;;;1.65;1.17;;;18.40;99.90;;;;;;5028431;28;20041;-75
2022/06/01 10:42:01;;;;;;;2.20;1.42;;;18.50;99.90;;;;;;5040427;28;20489;-76
2022/06/01 10:44:53;;;;;;;3.92;1.63;;;18.10;99.90;;;;;;5043013;28;20052;-75
2022/06/01 10:47:29;;;;;;;3.92;1.80;;;17.40;99.90;;;;;;5042562;28;20049;-74
2022/06/01 10:50:03;;;;;;;3.80;1.98;;;16.70;99.90;;;;;;5031930;28;20098;-74
2022/06/01 10:52:55;;;;;;;3.63;2.00;;;16.30;99.90;;;;;;5041621;28;20044;-75
2022/06/01 10:55:29;;;;;;;1.92;1.20;;;16.50;99.90;;;;;;5042573;28;20049;-75
2022/06/01 10:57:58;;;;;;;1.15;0.40;;;16.90;99.90;;;;;;5022001;28;20045;-75
2022/06/01 11:00:33;;;;;;;2.15;0.45;;;17.40;99.90;;;;;;5039543;28;20084;-76
2022/06/01 11:03:20;;;;;;;0.20;0.10;;;18.10;99.90;;;;;;5059707;28;20029;-76
2022/06/01 11:06:11;;;;;;;0.40;0.20;;;18.60;99.90;;;;;;5044444;28;20044;-76
2022/06/01 11:08:57;;;;;;;1.35;0.80;;;19.00;98.40;;;;;;5043398;28;20040;-75
2022/06/01 11:12:04;;;;;;;1.33;0.70;;;19.00;99.20;;;;;;5043924;28;20499;-75
2022/06/01 11:14:48;;;;;;;1.17;0.65;;;18.80;92.80;;;;;;5031900;28;20049;-75
2022/06/01 11:17:44;;;;;;;0.73;0.55;;;18.20;93.90;;;;;;5051013;28;20033;-75
2022/06/01 11:20:51;;;;;;;2.33;1.00;;;17.60;93.90;;;;;;5041710;28;20127;-75
2022/06/01 11:23:32;;;;;;;1.75;0.80;;;17.10;96.80;;;;;;5029884;28;20124;-75
2022/06/01 11:26:16;;;;;;;2.33;0.90;;;16.60;99.50;;;;;;5052701;28;20492;-74
2022/06/01 11:28:48;;;;;;;2.57;0.97;;;16.10;99.90;;;;;;5048332;28;20377;-72
2022/06/01 11:31:22;;;;;;;1.88;0.90;;;15.70;99.90;;;;;;5048273;28;20799;-73
2022/06/01 11:34:20;;;;;;;3.53;1.00;;;15.30;99.90;;;;;;5048635;28;20103;-73
2022/06/01 11:37:19;;;;;;;1.13;0.50;;;14.90;99.90;;;;;;5049534;28;20071;-74
2022/06/01 11:40:19;;;;;;;0.60;0.30;;;14.40;99.90;;;;;;5022476;28;20048;-73
2022/06/01 11:42:55;;;;;;;1.52;0.20;;;14.00;99.90;;;;;;5026112;28;20037;-74
2022/06/01 11:45:33;;;;;;;0.80;0.40;;;13.60;99.90;;;;;;5039444;28;20489;-74
2022/06/01 11:48:06;;;;;;;2.20;0.30;;;13.40;99.90;;;;;;5045570;28;20045;-73
2022/06/01 11:50:44;;;;;;;2.65;0.32;;;13.10;99.90;;;;;;5045004;28;20053;-74
2022/06/01 11:53:41;;;;;;;2.30;0.50;;;13.00;99.90;;;;;;5047353;28;20427;-74
2022/06/01 11:56:13;;;;;;;0.70;0.25;;;12.90;99.90;;;;;;5040353;28;20118;-74
2022/06/01 11:58:41;;;;;;;1.67;0.30;;;12.80;99.90;;;;;;5051247;28;20036;-74
2022/06/01 12:01:28;;;;;;;1.15;0.20;;;12.90;99.90;;;;;;5042656;28;20121;-74
2022/06/01 12:04:30;;;;;;;1.88;0.40;;;13.00;99.90;;;;;;5045642;28;20037;-74
2022/06/01 12:07:08;;;;;;;1.15;0.30;;;13.20;99.90;;;;;;5043602;28;20587;-75
2022/06/01 12:09:55;;;;;;;1.02;0.30;;;13.20;99.90;;;;;;5046555;28;20083;-75
2022/06/01 12:12:32;;;;;;;0.35;0.25;;;13.60;99.90;;;;;;5044204;28;20076;-75
2022/06/01 12:15:01;;;;;;;2.00;0.60;;;13.90;99.90;;;;;;5037474;28;20400;-75
2022/06/01 12:17:30;;;;;;;0.40;0.20;;;14.30;99.90;;;;;;5046468;28;20044;-75
2022/06/01 12:20:28;;;;;;;0.30;0.10;;;14.60;99.90;;;;;;5029847;28;20049;-75
2022/06/01 12:29:02;;;;;;;0.57;0.20;;;16.10;99.90;;;;;;5048882;28;20078;-75
2022/06/01 12:31:56;;;;;;;0.77;0.22;;;16.60;99.90;;;;;;5031475;28;20057;-76
2022/06/01 12:34:38;;;;;;;0.22;0.20;;;17.40;99.90;;;;;;5024458;28;20060;-76
2022/06/01 12:37:21;;;;;;;1.58;0.30;;;17.90;99.90;;;;;;5041335;28;20045;-76
2022/06/01 12:39:54;;;;;;;1.48;0.30;;;18.40;99.90;;;;;;5052855;28;20420;-76
2022/06/01 12:42:55;;;;;;;0.68;0.30;;;18.70;99.90;;;;;;5047568;28;20389;-76
2022/06/01 12:45:48;;;;;;;1.40;0.30;;;18.70;99.90;;;;;;5034359;28;20052;-76
2022/06/01 12:48:22;;;;;;;0.98;0.38;;;18.70;99.90;;;;;;5046522;28;20122;-76
2022/06/01 12:50:52;;;;;;;1.33;0.60;;;18.90;99.90;;;;;;5034728;28;20551;-76
2022/06/01 12:53:40;;;;;;;1.92;1.00;;;19.10;99.90;;;;;;5045360;28;20292;-76
2022/06/01 12:56:17;;;;;;;1.15;0.90;;;18.80;96.30;;;;;;5043493;28;20503;-76
2022/06/01 12:58:45;;;;;;;1.85;0.88;;;17.60;95.10;;;;;;5042930;28;20074;-76
2022/06/01 13:01:11;;;;;;;2.65;1.40;;;16.80;98.50;;;;;;5035544;28;20539;-76
2022/06/01 13:03:43;;;;;;;2.33;0.90;;;16.20;99.90;;;;;;5042716;28;20135;-75
2022/06/01 13:06:13;;;;;;;1.55;0.60;;;15.80;99.90;;;;;;5044007;28;20135;-75
2022/06/01 13:08:40;;;;;;;2.65;0.60;;;15.40;99.90;;;;;;5042743;28;20037;-75
2022/06/01 13:11:31;;;;;;;1.05;0.30;;;15.30;99.90;;;;;;5047406;28;20049;-75
2022/06/01 13:14:04;;;;;;;0.70;0.35;;;15.40;99.90;;;;;;5045906;28;20044;-75
2022/06/01 13:16:36;;;;;;;0.50;0.30;;;15.70;99.90;;;;;;5046992;28;20477;-76
2022/06/01 13:19:19;;;;;;;0.70;0.40;;;16.00;99.90;;;;;;5041480;28;20041;-76
2022/06/01 13:21:51;;;;;;;1.60;0.63;;;16.20;99.90;;;;;;5056459;28;20037;-75
2022/06/01 13:24:18;;;;;;;0.70;0.38;;;16.40;99.90;;;;;;5050406;28;20055;-75
2022/06/01 13:26:47;;;;;;;1.42;0.20;;;16.60;99.90;;;;;;5026325;28;20061;-76
2022/06/01 13:29:39;;;;;;;1.35;0.32;;;16.70;99.40;;;;;;5045276;28;20052;-76
2022/06/01 13:32:10;;;;;;;1.67;0.40;;;16.80;94.80;;;;;;5035119;28;20689;-77
2022/06/01 13:34:50;;;;;;;1.00;0.40;;;17.00;98.20;;;;;;5047181;28;20048;-70